Ypsilanti, MI

6:25 PM EST on February 08, 2016 (GMT -0500)
Bagley Ave (roof top) | | Change Station
CLOSE
Current Station
Personal Weather Station
Location: Ypsilanti, MI
Elevation: 778 ft
Nearby Weather Stations

Elev 778 ft 42.25 °N, 83.59 °W | Updated 11 minutes ago

Snow
Snow
34.5 °F
Feels Like 34 °F
N
0.0
Wind Variable Wind from SW

Today
High -- | Low -- °F
--% Chance of Precip.
Yesterday
High -- | Low -- °F
Precip. -- in
Pressure 29.60 in
Visibility 2.0 miles
Clouds Mostly Cloudy 1700 ft
Overcast 3000 ft
Windchill 34 °F
Dew Point 31 °F
Humidity 88%
Rainfall 0.00 in
Snow Depth Not available.
7:40 AM 5:57 PM
New Moon, 0% visible
SPECI KYIP 082313Z 26009KT 2SM -SN BKN017 OVC030 03/M01 A2960 RMK AO2 WSHFT 2247 RAE06SNB06 P0001 T00281006
Pressure 29.60 in
Visibility 2.0 miles
Clouds Mostly Cloudy 1700 ft
Overcast 3000 ft
Windchill 34 °F
Dew Point 31 °F
Humidity 88%
Rainfall 0.00 in
Snow Depth Not available.
7:40 AM 5:57 PM
New Moon, 0% visible
SPECI KYIP 082313Z 26009KT 2SM -SN BKN017 OVC030 03/M01 A2960 RMK AO2 WSHFT 2247 RAE06SNB06 P0001 T00281006

10-Day Weather Forecast

Almanac

Astronomy

Feb. 08, 2016 Rise Set
Actual Time
Civil Twilight
Nautical Twilight
Astronomical Twilight
Moon
Length of Visible Light
Length of Day
Tomorrow will be .
, % of the Moon is Illuminated

Today's Extremes

State Highs State Lows

Community

WunderPhotos

Upload Photos

1,891,525 photos uploaded!

WunderBlog® & News

Nearby

Air Quality

  Air Quality AQ Index Pollutant
Not available.

Snow Depth

Station Depth Elevation

Earthquake Activity

City Distance Mag. Time & Date
Minimum magnitude displayed is 2.5.

Coastal Water Temperatures

Place Temperature

Stations

Nearby Weather Stations

Station Location Temp. Windchill Dew Point Humidity Wind Precip. Elev Updated Type
                   

Watches & Warnings

There are currently no watches in effect.